Latest Coastal Weather Observations for Maatsuyker Island

IDT60701

Issued at 12:42 pm EDT Tuesday 2 March 2021 (issued every 10 minutes, with the page automatically refreshed every 10 minutes)

About coastal observations | Map of coastal stations | Coastal observations for TAS | Marine services | Other Formats
Station Details ID: 094041 Name: MAATSUYKER ISLAND LIGHTHOUSE Lat: -43.66 Lon: 146.27 Height: 146.5 m
Data from the previous 72 hours. | See also: Recent months at Maatsuyker Island
Date/Time
EDT
Wind Sea
Height
m
Swell Vis
km
Cloud Weather Temp
°C
Press
MSL
hPa
Rain since
9am
mm
Dir  Spd
kts
Gust
kts
Height
m
Period
s
Dir
02/12:36pm SW 25 30 - - - - - - - 10.3 1015.9 0.0
02/12:30pm WSW 18 26 - - - - - - - 11.1 1015.8 0.0
02/12:24pm W 17 23 - - - - - - - 11.0 - 0.0
02/12:11pm SW 20 28 - - - - - - - 10.6 - 0.0
02/12:00pm SSW 17 21 - - - - - - - 9.7 1015.7 0.0
02/11:44am SSW 28 30 - - - - - - - 10.4 - 0.0
02/11:30am S 29 34 - - - - - - - 10.4 - 0.0
02/11:08am S 23 36 - - - - - - - 10.2 - 0.0
02/11:05am S 21 27 - - - - - - - 10.4 - 0.0
02/11:00am SSW 18 28 - - - - - - - 10.1 - 0.0
02/10:59am SSW 18 28 - - - - - - - 10.1 - 0.0
02/10:53am SSW 20 24 - - - - - - - 10.0 - 0.0
02/10:46am W 16 20 - - - - - - - 9.9 - 0.0
02/10:30am SW 22 32 - - - - - - - 9.1 - 0.0
02/10:00am WSW 15 28 - - - - - - - 9.7 - 0.0
02/09:47am WSW 17 22 - - - - - - - 9.3 - 0.0
02/09:33am SSW 22 32 - - - - - - - 10.1 - 0.0
02/09:30am SSW 23 32 - - - - - - - 10.2 - 0.0
02/09:00am SSW 23 30 3 3.0 12 SW 15 Mostly cloudy Distant precip. 10.2 1014.3 13.4
02/08:52am SSW 22 27 - - - - - - - 9.9 - 13.4
02/08:45am WSW 17 27 - - - - - - - 9.7 - 13.4
02/08:30am SW 21 30 - - - - - - - 9.5 - 13.4
02/08:24am SW 21 30 - - - - - - - 9.6 - 13.4
02/08:17am S 27 34 - - - - - - - 9.6 - 13.4
02/08:00am SSW 19 25 - - - - - - - 9.6 - 13.4
02/07:47am S 20 24 - - - - - - - 9.3 - 13.4
02/07:30am S 31 41 - - - - - - - 8.7 - 13.4
02/07:26am S 31 41 - - - - - - - 8.8 - 13.4
02/07:22am S 26 33 - - - - - - - 8.7 - 13.2
02/07:17am SW 25 30 - - - - - - - 9.0 - 13.2
02/07:08am S 29 31 - - - - - - - 9.1 - 13.2
02/07:02am SSW 20 30 - - - - - - - 9.3 - 13.2
02/07:00am SSW 21 30 - - - - - - - 9.5 - 13.2
02/06:30am S 27 37 - - - - - - - 9.8 - 13.2
02/06:29am S 27 37 - - - - - - - 9.8 - 13.2
02/06:00am SSW 27 36 3 3.5 12 SW 8 Cloudy Showers 9.3 1012.3 13.2
02/05:59am SSW 26 36 - - - - - - - 9.4 - 13.2
02/05:30am SSW 24 31 - - - - - - - 9.7 - 13.2
02/05:26am SSW 21 31 - - - - - - - 9.5 - 13.2
02/05:16am S 27 30 - - - - - - - 9.8 - 13.2
02/05:09am SW 21 27 - - - - - - - 10.1 - 13.2
02/05:00am S 25 31 - - - - - - - 10.0 - 13.2
02/04:54am SSW 21 31 - - - - - - - 10.1 - 13.2
02/04:51am SSW 19 27 - - - - - - - 10.1 - 13.2
02/04:30am S 30 36 - - - - - - - 9.6 - 13.2
02/04:13am S 27 38 - - - - - - - 10.0 - 13.2
02/04:00am SSW 26 34 - - - - - - - 9.7 - 13.2
02/03:30am SSW 25 32 - - - - - - - 9.7 - 13.0
02/03:00am SSW 25 37 - - - - - - - 10.2 1010.8 13.0
02/02:42am SSW 26 36 - - - - - - - 9.9 - 13.0
02/02:30am S 32 38 - - - - - - - 10.2 - 13.0
02/02:00am S 35 40 - - - - - - - 10.1 - 13.0
02/01:30am S 35 41 - - - - - - - 10.3 - 13.0
02/01:05am S 36 46 - - - - - - - 10.0 - 13.0
02/01:00am S 37 46 - - - - - - - 9.9 - 13.0
02/12:31am S 39 49 - - - - - - - 10.1 - 12.6
02/12:30am S 40 49 - - - - - - - 10.1 - 12.6
02/12:22am S 39 49 - - - - - - - 10.0 - 12.6
02/12:00am SSW 36 42 - - - - - - - 9.9 1008.5 12.4
 
Date/Time
EDT
Wind Sea
Height
m
Swell Vis
km
Cloud Weather Temp
°C
Press
MSL
hPa
Rain since
9am
mm
Dir  Spd
kts
Gust
kts
Height
m
Period
s
Dir
01/11:30pm SSW 34 45 - - - - - - - 9.9 - 12.2
01/11:00pm SSW 35 50 - - - - - - - 10.0 - 11.8
01/10:30pm SSW 40 51 - - - - - - - 9.9 - 11.6
01/10:00pm SSW 38 53 - - - - - - - 10.6 - 11.6
01/09:30pm SSW 37 49 - - - - - - - 10.7 - 11.6
01/09:00pm SSW 35 46 - - - - - - - 10.4 1005.3 11.2
01/08:37pm SW 39 49 - - - - - - - 10.5 - 11.2
01/08:30pm SW 41 49 - - - - - - - 10.1 - 11.2
01/08:29pm SW 42 52 - - - - - - - 10.2 - 11.2
01/08:20pm SW 47 52 - - - - - - - 10.0 - 11.2
01/08:00pm WSW 36 52 - - - - - - - 10.0 - 11.0
01/07:30pm WSW 31 43 - - - - - - - 10.2 - 9.8
01/07:00pm WSW 30 44 - - - - - - - 10.1 - 9.8
01/06:30pm W 30 45 - - - - - - - 10.1 - 9.8
01/06:00pm WSW 27 39 - - - - - - - 10.8 1002.7 9.6
01/05:30pm W 26 38 - - - - - - - 10.6 - 9.6
01/05:29pm WSW 27 38 - - - - - - - 10.5 - 9.6
01/05:26pm W 16 28 - - - - - - - 10.5 - 9.6
01/05:15pm WNW 27 32 - - - - - - - 10.7 - 8.6
01/05:00pm WNW 18 21 - - - - - - - 11.1 - 8.2
01/04:30pm W 17 21 - - - - - - - 10.8 - 8.2
01/04:00pm W 17 21 - - - - - - - 10.6 - 8.2
01/03:30pm W 17 23 - - - - - - - 10.7 - 8.0
01/03:18pm W 23 33 - - - - - - - 10.5 - 8.0
01/03:09pm W 25 30 - - - - - - - 10.8 - 8.0
01/03:00pm W 24 31 - - - - - - - 10.5 1003.5 8.0
01/02:50pm WSW 25 32 - - - - - - - 10.3 - 7.4
01/02:30pm WNW 35 41 - - - - - - - 11.3 - 6.2
01/02:26pm WNW 31 39 - - - - - - - 11.7 - 5.4
01/02:05pm WNW 19 30 - - - - - - - 12.3 - 3.4
01/02:00pm WNW 19 22 - - - - - - - 12.2 - 3.2
01/01:30pm WNW 24 30 - - - - - - - 12.3 - 2.4
01/01:00pm WNW 26 30 - - - - - - - 12.7 - 1.8
01/12:30pm NW 30 34 - - - - - - - 13.1 - 1.4
01/12:12pm NW 31 33 - - - - - - - 12.8 - 1.2
01/12:00pm NW 20 25 - - - - - - - 14.2 1003.7 1.0
01/11:30am NW 20 23 - - - - - - - 13.2 - 1.0
01/11:00am NW 28 31 - - - - - - - 12.9 - 1.0
01/10:38am NW 27 33 - - - - - - - 13.1 - 0.0
01/10:30am NW 14 22 - - - - - - - 14.4 - 0.0
01/10:00am NW 11 15 - - - - - - - 14.3 - 0.0
01/09:30am NNW 11 13 - - - - - - - 14.2 - 0.0
01/09:00am NW 14 17 1 3.5 12 SW 15 Cloudy Distant precip. 13.9 1006.1 0.0
01/08:30am NW 15 19 - - - - - - - 13.9 - 0.0
01/08:00am NW 14 17 - - - - - - - 13.7 - 0.0
01/07:30am NW 16 19 - - - - - - - 13.5 - 0.0
01/07:00am NNW 13 15 - - - - - - - 13.4 - 0.0
01/06:30am NW 13 15 - - - - - - - 13.3 - 0.0
01/06:00am WNW 15 17 1 3.0 11 SW 6 Cloudy Distant precip. 13.5 1006.7 0.0
01/05:30am WNW 15 18 - - - - - - - 13.7 - 0.0
01/05:00am NW 12 15 - - - - - - - 14.1 - 0.0
01/04:30am NW 13 14 - - - - - - - 14.1 - 0.0
01/04:00am NW 11 14 - - - - - - - 14.1 - 0.0
01/03:30am NW 11 13 - - - - - - - 14.1 - 0.0
01/03:00am NNW 10 12 - - - - - - - 14.1 1007.7 0.0
01/02:30am NW 9 11 - - - - - - - 14.2 - 0.0
01/02:00am NNW 5 6 - - - - - - - 13.9 - 0.0
01/01:30am N 3 5 - - - - - - - 13.8 - 0.0
01/01:00am CALM 0 0 - - - - - - - 14.0 - 0.0
01/12:30am E 1 4 - - - - - - - 14.1 - 0.0
01/12:00am CALM 0 0 - - - - - - - 14.1 1010.0 0.0
 
Date/Time
EDT
Wind Sea
Height
m
Swell Vis
km
Cloud Weather Temp
°C
Press
MSL
hPa
Rain since
9am
mm
Dir  Spd
kts
Gust
kts
Height
m
Period
s
Dir
28/11:30pm CALM 0 4 - - - - - - - 14.0 - 0.0
28/11:00pm WNW 2 5 - - - - - - - 14.1 - 0.0
28/10:30pm WNW 3 6 - - - - - - - 14.1 - 0.0
28/10:00pm W 4 6 - - - - - - - 14.0 - 0.0
28/09:30pm WNW 4 6 - - - - - - - 14.0 - 0.0
28/09:00pm WNW 3 5 - - - - - - - 14.0 1010.9 0.0
28/08:30pm WNW 4 6 - - - - - - - 13.8 - 0.0
28/08:00pm WNW 5 9 - - - - - - - 13.8 - 0.0
28/07:30pm NW 3 5 - - - - - - - 14.5 - 0.0
28/07:00pm NW 2 4 - - - - - - - 15.5 - 0.0
28/06:30pm NW 2 5 - - - - - - - 16.1 - 0.0
28/06:00pm NNW 3 6 - - - - - - - 15.7 1011.0 0.0
28/05:30pm NW 4 7 - - - - - - - 17.1 - 0.0
28/05:00pm NNE 3 6 - - - - - - - 16.1 - 0.0
28/04:30pm SE 6 8 - - - - - - - 17.2 - 0.0
28/04:00pm SE 5 7 - - - - - - - 16.8 - 0.0
28/03:30pm ESE 4 8 - - - - - - - 17.2 - 0.0
28/03:00pm SSE 6 8 - - - - - - - 16.8 1012.2 0.0
28/02:30pm SSE 6 8 - - - - - - - 16.9 - 0.0
28/02:00pm S 6 8 - - - - - - - 16.8 - 0.0
28/01:30pm SW 6 8 - - - - - - - 16.2 - 0.0
28/01:00pm WSW 8 10 - - - - - - - 16.6 - 0.0
28/12:30pm W 7 9 - - - - - - - 15.8 - 0.0
28/12:00pm WNW 7 10 - - - - - - - 15.4 1013.5 0.0
28/11:30am WNW 6 8 - - - - - - - 15.2 - 0.0
28/11:00am W 4 5 - - - - - - - 14.2 - 0.0
28/10:30am W 3 5 - - - - - - - 14.3 - 0.0
28/10:00am S 4 6 - - - - - - - 14.3 - 0.0
28/09:30am NW 1 4 - - - - - - - 14.0 - 0.0
28/09:00am NNW 4 5 <0.5 4.0 15 SW 9 Mostly cloudy Mist 13.4 1013.5 0.0
28/08:30am N 3 5 - - - - - - - 13.1 - 0.0
28/08:00am WNW 1 3 - - - - - - - 13.1 - 0.0
28/07:30am CALM 0 3 - - - - - - - 12.3 - 0.0
28/07:00am WNW 3 5 - - - - - - - 12.0 - 0.0
28/06:30am NNW 3 5 - - - - - - - 12.0 - 0.0
28/06:00am NNW 3 6 <0.5 3.5 14 SW 6 Mostly cloudy Mist 12.2 1012.9 0.0
28/05:30am E 7 12 - - - - - - - 12.4 - 0.0
28/05:00am ENE 1 4 - - - - - - - 12.1 - 0.0
28/04:30am WNW 2 4 - - - - - - - 12.5 - 0.0
28/04:00am NNW 3 9 - - - - - - - 12.7 - 0.0
28/03:30am NW 4 6 - - - - - - - 12.4 - 0.0
28/03:00am WNW 5 8 - - - - - - - 12.6 1013.3 0.0
28/02:30am WNW 5 7 - - - - - - - 12.4 - 0.0
28/02:00am WNW 4 7 - - - - - - - 12.3 - 0.0
28/01:30am WNW 5 8 - - - - - - - 12.3 - 0.0
28/01:00am WNW 5 8 - - - - - - - 12.5 - 0.0
28/12:30am NW 5 7 - - - - - - - 12.4 - 0.0
28/12:00am WNW 4 8 - - - - - - - 12.6 1014.0 0.0
 
Date/Time
EDT
Wind Sea
Height
m
Swell Vis
km
Cloud Weather Temp
°C
Press
MSL
hPa
Rain since
9am
mm
Dir  Spd
kts
Gust
kts
Height
m
Period
s
Dir
27/11:30pm WNW 5 8 - - - - - - - 12.6 - 0.0
27/11:00pm WNW 4 7 - - - - - - - 12.4 - 0.0
27/10:30pm NW 4 7 - - - - - - - 12.3 - 0.0
27/10:00pm NW 4 7 - - - - - - - 12.5 - 0.0
27/09:30pm NW 5 8 - - - - - - - 12.5 - 0.0
27/09:00pm WNW 4 7 - - - - - - - 12.4 1014.5 0.0
27/08:30pm W 5 7 - - - - - - - 12.3 - 0.0
27/08:00pm WNW 5 7 - - - - - - - 12.3 - 0.0
27/07:30pm WNW 4 7 - - - - - - - 12.5 - 0.0
27/07:00pm WNW 5 9 - - - - - - - 13.0 - 0.0
27/06:30pm NW 5 8 - - - - - - - 13.2 - 0.0
27/06:00pm WNW 4 7 - - - - - - - 13.2 1013.8 0.0
27/05:30pm NW 5 10 - - - - - - - 13.4 - 0.0
27/05:00pm NNW 4 8 - - - - - - - 13.7 - 0.0
27/04:30pm NW 3 5 - - - - - - - 14.0 - 0.0
27/04:00pm NW 4 8 - - - - - - - 14.2 - 0.0
27/03:30pm NNW 4 6 - - - - - - - 14.7 - 0.0
27/03:00pm NNW 3 7 - - - - - - - 14.8 1014.4 0.0
27/02:30pm NW 4 7 - - - - - - - 14.8 - 0.0
27/02:00pm NNW 4 8 - - - - - - - 14.8 - 0.0
27/01:30pm NNW 4 7 - - - - - - - 15.3 - 0.0
27/01:00pm NNW 4 6 - - - - - - - 15.5 - 0.0

Other formats

Comma delimited format used in spreadsheet applications
http://www.bom.gov.au/fwo/IDT60701/IDT60701.94962.axf

JavaScript Object Notation format (JSON) in row-major order
http://www.bom.gov.au/fwo/IDT60701/IDT60701.94962.json

Data quality

Most of these data are generated automatically and are frequently updated. Quality checks on data are not normally performed. It is possible for incorrect values to appear. Refer to information at About Latest Weather Observations and please check the disclaimer before using these data.